Time;durP1;ratioP1;P1;durP2;ratioP2;P2;SDS_P1;SDS_P2;PMS_P1;PMS_P2;Temp;Humidity;BMP_temperature;BMP_pressure;BME280_temperature;BME280_humidity;BME280_pressure;Samples;Min_cycle;Max_cycle;Signal;HPM_P1;HPM_P2
2021/03/24 00:04:26;;;;;;;45.00;26.57;;;;;;;;;;12724545;23;20189;-76
2021/03/24 00:09:28;;;;;;;48.33;27.73;;;;;;;;;;12720750;23;20192;-76
2021/03/24 00:14:31;;;;;;;50.40;27.97;;;;;;;;;;12723434;23;20236;-77
2021/03/24 00:19:32;;;;;;;46.07;28.27;;;;;;;;;;12703257;23;20177;-77
2021/03/24 08:30:35;;;;;;;58.93;28.97;;;;;;;;;;12703230;23;20252;-77
2021/03/24 08:35:44;;;;;;;61.20;28.13;;;;;;;;;;12725601;23;20169;-76
2021/03/24 08:40:56;;;;;;;55.33;28.10;;;;;;;;;;12717876;23;20203;-77
2021/03/24 08:46:03;;;;;;;54.93;28.30;;;;;;;;;;12727186;23;20205;-77
2021/03/24 08:51:09;;;;;;;55.00;27.87;;;;;;;;;;12720649;23;20200;-77
2021/03/24 08:56:14;;;;;;;54.67;27.47;;;;;;;;;;12721378;23;20169;-76
2021/03/24 09:01:33;;;;;;;51.87;27.30;;;;;;;;;;12722296;23;20215;-77
2021/03/24 09:06:38;;;;;;;53.77;28.27;;;;;;;;;;12724894;23;20179;-77
2021/03/24 09:11:44;;;;;;;55.43;28.37;;;;;;;;;;12717052;23;20169;-77
2021/03/24 09:16:53;;;;;;;52.23;27.03;;;;;;;;;;12725091;23;20577;-77
2021/03/24 09:22:03;;;;;;;55.53;26.97;;;;;;;;;;12720871;23;20260;-78
2021/03/24 09:27:26;;;;;;;51.63;26.97;;;;;;;;;;12720950;23;20516;-77
2021/03/24 09:32:37;;;;;;;53.63;28.37;;;;;;;;;;12725207;23;20189;-78
2021/03/24 09:37:42;;;;;;;53.43;27.60;;;;;;;;;;12721364;23;20184;-78
2021/03/24 09:42:46;;;;;;;56.17;26.97;;;;;;;;;;12724825;23;20200;-78
2021/03/24 09:47:50;;;;;;;49.47;25.80;;;;;;;;;;12721886;23;20173;-77
2021/03/24 09:52:55;;;;;;;50.93;26.67;;;;;;;;;;12721157;23;20255;-78
2021/03/24 09:58:27;;;;;;;45.60;25.87;;;;;;;;;;12725021;23;20259;-78
2021/03/24 10:03:33;;;;;;;50.17;26.47;;;;;;;;;;12724955;23;21211;-77
2021/03/24 10:08:39;;;;;;;51.13;27.33;;;;;;;;;;12719662;23;20165;-77
2021/03/24 10:13:45;;;;;;;55.20;27.33;;;;;;;;;;12725432;23;20556;-78
2021/03/24 10:18:53;;;;;;;51.17;26.83;;;;;;;;;;12724377;23;20209;-78
2021/03/24 10:23:59;;;;;;;51.03;27.30;;;;;;;;;;12727697;23;20264;-79
2021/03/24 10:29:08;;;;;;;51.97;27.77;;;;;;;;;;12748440;23;20271;-79
2021/03/24 10:34:13;;;;;;;47.53;26.97;;;;;;;;;;12724186;23;20292;-78
2021/03/24 10:39:26;;;;;;;47.63;26.80;;;;;;;;;;12723042;23;20181;-79
2021/03/24 10:44:41;;;;;;;39.83;23.93;;;;;;;;;;12724685;23;20200;-80
2021/03/24 10:49:49;;;;;;;48.23;25.80;;;;;;;;;;12724390;23;20197;-79
2021/03/24 12:23:10;;;;;;;42.47;21.20;;;;;;;;;;10435888;28;20332;-78
2021/03/24 12:28:12;;;;;;;41.43;21.33;;;;;;;;;;10410871;28;20204;-80
2021/03/24 12:33:22;;;;;;;47.83;22.10;;;;;;;;;;10511196;22;20738;-79
2021/03/24 12:38:26;;;;;;;30.47;16.37;;;;;;;;;;10472675;28;20280;-80
2021/03/24 12:43:28;;;;;;;28.77;15.13;;;;;;;;;;10468315;28;20203;-79
2021/03/24 12:48:34;;;;;;;34.63;19.30;;;;;;;;;;10469970;28;20215;-81
2021/03/24 12:53:39;;;;;;;32.50;17.80;;;;;;;;;;10469587;28;20207;-82
2021/03/24 12:58:44;;;;;;;38.57;18.13;;;;;;;;;;10466677;28;20321;-81
2021/03/24 13:04:13;;;;;;;31.43;16.60;;;;;;;;;;10455818;28;20238;-80
2021/03/24 13:09:24;;;;;;;39.63;18.30;;;;;;;;;;10467209;28;20564;-80
2021/03/24 13:14:37;;;;;;;40.40;19.50;;;;;;;;;;10444193;28;20245;-80
2021/03/24 13:19:42;;;;;;;34.43;17.53;;;;;;;;;;10438096;28;20268;-79
2021/03/24 13:24:53;;;;;;;37.33;18.87;;;;;;;;;;10415929;28;20215;-80
2021/03/24 13:29:59;;;;;;;29.50;15.63;;;;;;;;;;10413404;28;20704;-78
2021/03/24 13:35:04;;;;;;;29.30;15.73;;;;;;;;;;10421213;28;20223;-85
2021/03/24 13:40:15;;;;;;;41.93;17.53;;;;;;;;;;10418200;28;20231;-86
2021/03/24 13:45:20;;;;;;;36.23;17.87;;;;;;;;;;10417517;28;21171;-85
2021/03/24 13:50:24;;;;;;;32.77;17.17;;;;;;;;;;10414254;28;20216;-85
2021/03/24 13:55:38;;;;;;;28.23;14.47;;;;;;;;;;10415780;28;20220;-85
2021/03/24 14:00:43;;;;;;;31.57;17.27;;;;;;;;;;10409206;28;20599;-86
2021/03/24 14:05:47;;;;;;;31.87;16.60;;;;;;;;;;10410316;28;20293;-86
2021/03/24 14:10:58;;;;;;;23.03;13.87;;;;;;;;;;10415105;28;20227;-85
2021/03/24 14:16:17;;;;;;;28.17;14.00;;;;;;;;;;10413887;28;20215;-85
2021/03/24 14:21:24;;;;;;;34.20;18.13;;;;;;;;;;10406734;28;20607;-86
2021/03/24 14:26:30;;;;;;;28.27;16.23;;;;;;;;;;10408597;28;20215;-87
2021/03/24 14:31:36;;;;;;;34.03;17.07;;;;;;;;;;10420360;28;20645;-87
2021/03/24 14:36:41;;;;;;;35.97;17.57;;;;;;;;;;10416064;28;20211;-86
2021/03/24 14:41:47;;;;;;;22.17;11.03;;;;;;;;;;10416763;28;20231;-86
2021/03/24 14:46:59;;;;;;;33.83;16.30;;;;;;;;;;10419332;28;20576;-86
2021/03/24 14:52:04;;;;;;;27.47;14.77;;;;;;;;;;10418782;28;20289;-87
2021/03/24 14:57:09;;;;;;;31.23;16.30;;;;;;;;;;10428137;28;20204;-86
2021/03/24 15:02:28;;;;;;;32.17;17.53;;;;;;;;;;10434284;28;20263;-86
2021/03/24 15:07:32;;;;;;;34.95;17.55;;;;;;;;;;10422778;28;20584;-85
2021/03/24 15:12:41;;;;;;;33.47;15.93;;;;;;;;;;10420882;28;20232;-85
2021/03/24 15:17:47;;;;;;;31.87;16.60;;;;;;;;;;10419019;28;20218;-86
2021/03/24 15:22:56;;;;;;;28.07;15.67;;;;;;;;;;10422773;28;20267;-87
2021/03/24 15:28:10;;;;;;;24.93;14.60;;;;;;;;;;10415422;28;22158;-86
2021/03/24 15:33:15;;;;;;;35.27;17.70;;;;;;;;;;10417137;28;20218;-86
2021/03/24 15:38:27;;;;;;;37.87;18.43;;;;;;;;;;10418081;28;20676;-86
2021/03/24 15:43:39;;;;;;;29.30;14.37;;;;;;;;;;10410460;28;20235;-87
2021/03/24 15:48:51;;;;;;;29.50;16.17;;;;;;;;;;10410660;28;20208;-86
2021/03/24 15:53:54;;;;;;;31.50;16.03;;;;;;;;;;10414853;28;20211;-85
2021/03/24 15:59:12;;;;;;;35.80;19.60;;;;;;;;;;10409931;28;20606;-87
2021/03/24 16:04:19;;;;;;;32.77;19.47;;;;;;;;;;10414176;28;20909;-85
2021/03/24 16:09:27;;;;;;;37.50;20.20;;;;;;;;;;10411355;28;20232;-78
2021/03/24 16:14:41;;;;;;;41.03;21.03;;;;;;;;;;10409456;28;20223;-79
2021/03/24 16:19:48;;;;;;;42.13;20.67;;;;;;;;;;10407733;28;20541;-79
2021/03/24 16:24:55;;;;;;;39.97;21.47;;;;;;;;;;10415962;28;20212;-81
2021/03/24 16:30:01;;;;;;;44.03;24.47;;;;;;;;;;10413104;28;20895;-80
2021/03/24 16:35:18;;;;;;;42.53;21.10;;;;;;;;;;10376244;28;20197;-81
2021/03/24 16:40:43;;;;;;;43.27;23.97;;;;;;;;;;10360040;28;20682;-79
2021/03/24 16:45:57;;;;;;;43.10;22.87;;;;;;;;;;10371958;28;20619;-80
2021/03/24 16:51:04;;;;;;;45.07;24.40;;;;;;;;;;10366327;28;20251;-78
2021/03/24 16:56:30;;;;;;;51.77;27.03;;;;;;;;;;10371117;28;20670;-82
2021/03/24 17:01:38;;;;;;;43.73;24.77;;;;;;;;;;10369510;28;20227;-82
2021/03/24 17:06:46;;;;;;;42.20;22.03;;;;;;;;;;10360352;28;20215;-81
2021/03/24 17:11:55;;;;;;;42.27;21.93;;;;;;;;;;10375118;28;20379;-87
2021/03/24 17:17:02;;;;;;;36.73;19.13;;;;;;;;;;10372312;28;20212;-84
2021/03/24 17:22:14;;;;;;;32.53;18.47;;;;;;;;;;10386848;28;20240;-86
2021/03/24 17:27:24;;;;;;;37.50;18.90;;;;;;;;;;10388258;28;20672;-84
2021/03/24 17:32:30;;;;;;;33.23;17.30;;;;;;;;;;10386733;28;20977;-90
2021/03/24 17:37:58;;;;;;;35.47;17.30;;;;;;;;;;10381964;28;20212;-90
2021/03/24 17:43:12;;;;;;;31.53;16.10;;;;;;;;;;10383696;28;20260;-92
2021/03/24 17:48:22;;;;;;;29.80;15.97;;;;;;;;;;10384110;28;20205;-91
2021/03/24 17:53:26;;;;;;;30.20;15.70;;;;;;;;;;10389678;28;20684;-91
2021/03/24 17:58:36;;;;;;;31.03;15.43;;;;;;;;;;10383944;28;20204;-88
2021/03/24 18:03:46;;;;;;;32.60;16.07;;;;;;;;;;10390867;28;20291;-90
2021/03/24 18:08:50;;;;;;;27.70;13.97;;;;;;;;;;10392076;28;20228;-89
2021/03/24 18:14:00;;;;;;;26.20;14.20;;;;;;;;;;10386721;28;20236;-92
2021/03/24 18:19:35;;;;;;;26.63;13.43;;;;;;;;;;10386570;28;20231;-91
2021/03/24 18:24:40;;;;;;;28.13;13.83;;;;;;;;;;10376914;28;20230;-89
2021/03/24 18:29:46;;;;;;;25.37;13.50;;;;;;;;;;10389664;28;20208;-88
2021/03/24 18:34:49;;;;;;;28.53;14.50;;;;;;;;;;10392645;28;20362;-91
2021/03/24 18:40:00;;;;;;;24.63;13.30;;;;;;;;;;10384646;28;20238;-92
2021/03/24 18:45:07;;;;;;;28.43;14.00;;;;;;;;;;10377723;28;20220;-90
2021/03/24 18:50:23;;;;;;;30.00;14.57;;;;;;;;;;10382440;28;20212;-92
2021/03/24 18:55:37;;;;;;;26.10;13.83;;;;;;;;;;10375050;28;21098;-94
2021/03/24 19:00:46;;;;;;;31.40;14.57;;;;;;;;;;10392259;28;20259;-92
2021/03/24 19:05:48;;;;;;;28.73;13.60;;;;;;;;;;10381375;28;20315;-92
2021/03/24 19:10:59;;;;;;;24.73;13.27;;;;;;;;;;10392269;28;20239;-94
2021/03/24 19:16:05;;;;;;;29.13;13.90;;;;;;;;;;10384122;28;20313;-93
2021/03/24 19:21:22;;;;;;;30.27;15.17;;;;;;;;;;10395288;28;20235;-94
2021/03/24 19:26:24;;;;;;;27.40;13.77;;;;;;;;;;10398497;28;20218;-93
2021/03/24 19:31:26;;;;;;;30.77;14.87;;;;;;;;;;10401900;28;20215;-93
2021/03/24 19:36:39;;;;;;;28.57;14.00;;;;;;;;;;10386885;28;20212;-87
2021/03/24 19:41:42;;;;;;;29.53;14.27;;;;;;;;;;10387877;28;20227;-94
2021/03/24 19:46:52;;;;;;;28.63;14.87;;;;;;;;;;10419919;28;20609;-94
2021/03/24 19:51:56;;;;;;;30.47;14.60;;;;;;;;;;10420837;28;20282;-93
2021/03/24 19:57:04;;;;;;;30.93;14.97;;;;;;;;;;10436519;28;20216;-92
2021/03/24 20:02:14;;;;;;;30.20;14.67;;;;;;;;;;10403327;28;20228;-92
2021/03/24 20:07:26;;;;;;;28.77;14.77;;;;;;;;;;10389778;28;20215;-93
2021/03/24 20:12:35;;;;;;;29.10;14.90;;;;;;;;;;10395622;28;20247;-92
2021/03/24 20:17:40;;;;;;;31.83;15.07;;;;;;;;;;10394001;28;20215;-92
2021/03/24 20:22:43;;;;;;;31.37;15.10;;;;;;;;;;10388671;28;20794;-92
2021/03/24 20:27:45;;;;;;;30.03;15.30;;;;;;;;;;10389598;28;20590;-92
2021/03/24 20:32:50;;;;;;;27.50;13.70;;;;;;;;;;10399772;28;20407;-92
2021/03/24 20:37:58;;;;;;;33.70;15.57;;;;;;;;;;10410192;28;20216;-93
2021/03/24 20:43:02;;;;;;;30.23;15.23;;;;;;;;;;10401897;28;20228;-91
2021/03/24 20:48:06;;;;;;;32.57;15.40;;;;;;;;;;10430110;28;20679;-92
2021/03/24 20:53:09;;;;;;;31.67;14.60;;;;;;;;;;10432854;28;20673;-92
2021/03/24 20:58:16;;;;;;;27.23;14.27;;;;;;;;;;10446516;28;20215;-93
2021/03/24 21:03:19;;;;;;;27.93;14.67;;;;;;;;;;10450590;28;20223;-92
2021/03/24 21:08:24;;;;;;;31.13;15.80;;;;;;;;;;10438825;28;20198;-93
2021/03/24 21:13:26;;;;;;;28.97;16.00;;;;;;;;;;10419862;28;20212;-93
2021/03/24 21:18:30;;;;;;;32.93;16.60;;;;;;;;;;10398500;28;20209;-93
2021/03/24 21:23:32;;;;;;;34.37;17.13;;;;;;;;;;10392455;28;20255;-92
2021/03/24 21:28:34;;;;;;;35.67;16.20;;;;;;;;;;10393640;28;20215;-92
2021/03/24 21:33:37;;;;;;;33.50;16.73;;;;;;;;;;10407643;28;20227;-91
2021/03/24 21:38:42;;;;;;;30.90;15.97;;;;;;;;;;10394929;28;20310;-92
2021/03/24 21:43:44;;;;;;;35.27;17.47;;;;;;;;;;10400095;28;20239;-93
2021/03/24 21:48:47;;;;;;;29.67;17.07;;;;;;;;;;10394397;28;20208;-91
2021/03/24 21:53:50;;;;;;;34.17;17.50;;;;;;;;;;10399961;28;20214;-92
2021/03/24 21:58:54;;;;;;;32.33;17.10;;;;;;;;;;10392752;28;20246;-92
2021/03/24 22:03:56;;;;;;;33.20;17.63;;;;;;;;;;10384816;28;20227;-92
2021/03/24 22:09:00;;;;;;;35.37;17.67;;;;;;;;;;10387392;28;20270;-93
2021/03/24 22:14:06;;;;;;;31.57;17.10;;;;;;;;;;10392629;28;20301;-93
2021/03/24 22:19:08;;;;;;;31.47;16.93;;;;;;;;;;10390918;28;20213;-93
2021/03/24 22:24:12;;;;;;;33.40;16.73;;;;;;;;;;10389049;28;20224;-93
2021/03/24 22:29:18;;;;;;;32.20;16.63;;;;;;;;;;10392579;28;20212;-92
2021/03/24 22:34:24;;;;;;;32.47;17.90;;;;;;;;;;10392351;28;20299;-92
2021/03/24 22:39:31;;;;;;;36.93;17.87;;;;;;;;;;10392898;28;20244;-91
2021/03/24 22:44:35;;;;;;;37.67;18.30;;;;;;;;;;10387981;28;20599;-93
2021/03/24 22:49:40;;;;;;;31.37;17.13;;;;;;;;;;10389116;28;20468;-92
2021/03/24 22:54:43;;;;;;;31.13;17.07;;;;;;;;;;10383514;28;20208;-92
2021/03/24 22:59:46;;;;;;;34.50;17.30;;;;;;;;;;10380374;28;20239;-92
2021/03/24 23:04:48;;;;;;;31.83;17.40;;;;;;;;;;10391703;28;20539;-92
2021/03/24 23:09:52;;;;;;;33.60;17.50;;;;;;;;;;10378659;28;20239;-92
2021/03/24 23:14:56;;;;;;;30.37;16.70;;;;;;;;;;10391244;28;20212;-92
2021/03/24 23:20:01;;;;;;;33.63;17.07;;;;;;;;;;10383835;28;20235;-92
2021/03/24 23:25:06;;;;;;;30.20;16.67;;;;;;;;;;10383559;28;20292;-93
2021/03/24 23:30:09;;;;;;;36.50;16.70;;;;;;;;;;10386624;28;20215;-91
2021/03/24 23:35:12;;;;;;;31.77;16.97;;;;;;;;;;10383942;28;20204;-92
2021/03/24 23:40:17;;;;;;;34.10;17.17;;;;;;;;;;10386427;28;21309;-91
2021/03/24 23:45:20;;;;;;;33.50;18.33;;;;;;;;;;10381427;28;20212;-92
2021/03/24 23:50:24;;;;;;;34.33;19.07;;;;;;;;;;10389682;28;20219;-93
2021/03/24 23:55:29;;;;;;;40.27;20.17;;;;;;;;;;10368213;28;20211;-91
